sensor_id;sensor_type;location;lat;lon;timestamp;temperature;humidity
29539;DHT22;16482;51.046;4.498;2022-11-12T00:00:50;21.80;41.40
29539;DHT22;16482;51.046;4.498;2022-11-12T00:03:15;21.80;41.40
29539;DHT22;16482;51.046;4.498;2022-11-12T00:05:43;21.80;41.40
29539;DHT22;16482;51.046;4.498;2022-11-12T00:08:09;21.80;41.30
29539;DHT22;16482;51.046;4.498;2022-11-12T00:10:34;21.70;41.30
29539;DHT22;16482;51.046;4.498;2022-11-12T00:13:00;21.80;41.30
29539;DHT22;16482;51.046;4.498;2022-11-12T00:15:26;21.70;41.20
29539;DHT22;16482;51.046;4.498;2022-11-12T00:17:52;21.70;41.20
29539;DHT22;16482;51.046;4.498;2022-11-12T00:20:18;21.70;41.20
29539;DHT22;16482;51.046;4.498;2022-11-12T00:22:44;21.70;41.20
29539;DHT22;16482;51.046;4.498;2022-11-12T00:25:10;21.70;41.20
29539;DHT22;16482;51.046;4.498;2022-11-12T00:27:36;21.70;41.20
29539;DHT22;16482;51.046;4.498;2022-11-12T00:30:05;21.70;41.10
29539;DHT22;16482;51.046;4.498;2022-11-12T00:32:37;21.70;41.00
29539;DHT22;16482;51.046;4.498;2022-11-12T00:35:04;21.70;41.10
29539;DHT22;16482;51.046;4.498;2022-11-12T00:37:30;21.70;41.10
29539;DHT22;16482;51.046;4.498;2022-11-12T00:39:56;21.70;41.10
29539;DHT22;16482;51.046;4.498;2022-11-12T00:42:22;21.70;41.10
29539;DHT22;16482;51.046;4.498;2022-11-12T00:44:47;21.70;41.00
29539;DHT22;16482;51.046;4.498;2022-11-12T00:47:14;21.70;41.00
29539;DHT22;16482;51.046;4.498;2022-11-12T00:49:40;21.70;40.90
29539;DHT22;16482;51.046;4.498;2022-11-12T00:52:06;21.70;41.00
29539;DHT22;16482;51.046;4.498;2022-11-12T00:54:32;21.70;40.90
29539;DHT22;16482;51.046;4.498;2022-11-12T00:56:58;21.70;41.00
29539;DHT22;16482;51.046;4.498;2022-11-12T00:59:25;21.70;40.90
29539;DHT22;16482;51.046;4.498;2022-11-12T01:01:50;21.70;40.90
29539;DHT22;16482;51.046;4.498;2022-11-12T01:04:19;21.70;40.90
29539;DHT22;16482;51.046;4.498;2022-11-12T01:06:44;21.70;40.90
29539;DHT22;16482;51.046;4.498;2022-11-12T01:09:10;21.70;40.90
29539;DHT22;16482;51.046;4.498;2022-11-12T01:11:36;21.70;40.90
29539;DHT22;16482;51.046;4.498;2022-11-12T01:14:05;21.70;40.90
29539;DHT22;16482;51.046;4.498;2022-11-12T01:16:35;21.70;40.80
29539;DHT22;16482;51.046;4.498;2022-11-12T01:19:03;21.70;40.80
29539;DHT22;16482;51.046;4.498;2022-11-12T01:21:31;21.60;40.70
29539;DHT22;16482;51.046;4.498;2022-11-12T01:23:59;21.70;40.80
29539;DHT22;16482;51.046;4.498;2022-11-12T01:26:25;21.70;40.80
29539;DHT22;16482;51.046;4.498;2022-11-12T01:28:55;21.70;40.80
29539;DHT22;16482;51.046;4.498;2022-11-12T01:31:29;21.70;40.70
29539;DHT22;16482;51.046;4.498;2022-11-12T01:33:57;21.70;40.70
29539;DHT22;16482;51.046;4.498;2022-11-12T01:36:25;21.60;40.70
29539;DHT22;16482;51.046;4.498;2022-11-12T01:38:52;21.60;40.70
29539;DHT22;16482;51.046;4.498;2022-11-12T01:41:24;21.70;40.80
29539;DHT22;16482;51.046;4.498;2022-11-12T01:44:23;21.60;40.60
29539;DHT22;16482;51.046;4.498;2022-11-12T01:47:14;21.60;40.60
29539;DHT22;16482;51.046;4.498;2022-11-12T01:50:13;21.60;40.60
29539;DHT22;16482;51.046;4.498;2022-11-12T01:52:46;21.60;40.60
29539;DHT22;16482;51.046;4.498;2022-11-12T01:55:16;21.60;40.50
29539;DHT22;16482;51.046;4.498;2022-11-12T01:57:53;21.60;40.60
29539;DHT22;16482;51.046;4.498;2022-11-12T02:00:20;21.60;40.60
29539;DHT22;16482;51.046;4.498;2022-11-12T02:02:52;21.60;40.60
29539;DHT22;16482;51.046;4.498;2022-11-12T02:05:20;21.60;40.60
29539;DHT22;16482;51.046;4.498;2022-11-12T02:07:47;21.60;40.60
29539;DHT22;16482;51.046;4.498;2022-11-12T02:10:14;21.60;40.50
29539;DHT22;16482;51.046;4.498;2022-11-12T02:12:40;21.60;40.50
29539;DHT22;16482;51.046;4.498;2022-11-12T02:15:25;21.60;40.50
29539;DHT22;16482;51.046;4.498;2022-11-12T02:17:52;21.60;40.50
29539;DHT22;16482;51.046;4.498;2022-11-12T02:20:17;21.60;40.50
29539;DHT22;16482;51.046;4.498;2022-11-12T02:22:43;21.60;40.50
29539;DHT22;16482;51.046;4.498;2022-11-12T02:25:16;21.60;40.50
29539;DHT22;16482;51.046;4.498;2022-11-12T02:27:43;21.60;40.40
29539;DHT22;16482;51.046;4.498;2022-11-12T02:30:10;21.60;40.50
29539;DHT22;16482;51.046;4.498;2022-11-12T02:32:36;21.60;40.30
29539;DHT22;16482;51.046;4.498;2022-11-12T02:35:03;21.60;40.40
29539;DHT22;16482;51.046;4.498;2022-11-12T02:37:29;21.60;40.50
29539;DHT22;16482;51.046;4.498;2022-11-12T02:39:55;21.60;40.50
29539;DHT22;16482;51.046;4.498;2022-11-12T02:42:20;21.60;40.40
29539;DHT22;16482;51.046;4.498;2022-11-12T02:44:46;21.60;40.40
29539;DHT22;16482;51.046;4.498;2022-11-12T02:47:12;21.60;40.40
29539;DHT22;16482;51.046;4.498;2022-11-12T02:49:38;21.60;40.30
29539;DHT22;16482;51.046;4.498;2022-11-12T02:52:04;21.50;40.30
29539;DHT22;16482;51.046;4.498;2022-11-12T02:54:30;21.50;40.30
29539;DHT22;16482;51.046;4.498;2022-11-12T02:56:55;21.60;40.30
29539;DHT22;16482;51.046;4.498;2022-11-12T02:59:24;21.60;40.40
29539;DHT22;16482;51.046;4.498;2022-11-12T03:01:50;21.60;40.30
29539;DHT22;16482;51.046;4.498;2022-11-12T03:04:15;21.60;40.30
29539;DHT22;16482;51.046;4.498;2022-11-12T03:06:41;21.60;40.40
29539;DHT22;16482;51.046;4.498;2022-11-12T03:09:07;21.50;40.30
29539;DHT22;16482;51.046;4.498;2022-11-12T03:11:33;21.50;40.20
29539;DHT22;16482;51.046;4.498;2022-11-12T03:13:59;21.50;40.20
29539;DHT22;16482;51.046;4.498;2022-11-12T03:16:26;21.50;40.10
29539;DHT22;16482;51.046;4.498;2022-11-12T03:18:52;21.50;40.10
29539;DHT22;16482;51.046;4.498;2022-11-12T03:21:17;21.50;40.20
29539;DHT22;16482;51.046;4.498;2022-11-12T03:23:43;21.50;40.20
29539;DHT22;16482;51.046;4.498;2022-11-12T03:26:09;21.50;40.20
29539;DHT22;16482;51.046;4.498;2022-11-12T03:28:35;21.50;40.20
29539;DHT22;16482;51.046;4.498;2022-11-12T03:31:01;21.50;40.20
29539;DHT22;16482;51.046;4.498;2022-11-12T03:33:26;21.50;40.20
29539;DHT22;16482;51.046;4.498;2022-11-12T03:35:55;21.50;40.30
29539;DHT22;16482;51.046;4.498;2022-11-12T03:38:21;21.50;40.20
29539;DHT22;16482;51.046;4.498;2022-11-12T03:40:48;21.50;40.20
29539;DHT22;16482;51.046;4.498;2022-11-12T03:43:13;21.50;40.20
29539;DHT22;16482;51.046;4.498;2022-11-12T03:45:39;21.50;40.10
29539;DHT22;16482;51.046;4.498;2022-11-12T03:48:05;21.50;40.10
29539;DHT22;16482;51.046;4.498;2022-11-12T03:50:31;21.50;40.20
29539;DHT22;16482;51.046;4.498;2022-11-12T03:52:58;21.50;40.10
29539;DHT22;16482;51.046;4.498;2022-11-12T03:55:26;21.50;40.20
29539;DHT22;16482;51.046;4.498;2022-11-12T03:57:53;21.50;40.10
29539;DHT22;16482;51.046;4.498;2022-11-12T04:00:20;21.50;40.10
29539;DHT22;16482;51.046;4.498;2022-11-12T04:02:47;21.50;40.20
29539;DHT22;16482;51.046;4.498;2022-11-12T04:05:13;21.50;40.10
29539;DHT22;16482;51.046;4.498;2022-11-12T04:08:03;21.50;40.10
29539;DHT22;16482;51.046;4.498;2022-11-12T04:11:10;21.50;40.10
29539;DHT22;16482;51.046;4.498;2022-11-12T04:13:40;21.50;40.20
29539;DHT22;16482;51.046;4.498;2022-11-12T04:16:19;21.50;40.20
29539;DHT22;16482;51.046;4.498;2022-11-12T04:19:05;21.40;40.10
29539;DHT22;16482;51.046;4.498;2022-11-12T04:21:52;21.50;40.20
29539;DHT22;16482;51.046;4.498;2022-11-12T04:27:25;21.50;40.20
29539;DHT22;16482;51.046;4.498;2022-11-12T04:29:52;21.40;40.10
29539;DHT22;16482;51.046;4.498;2022-11-12T04:32:44;21.40;40.20
29539;DHT22;16482;51.046;4.498;2022-11-12T04:35:11;21.50;40.80
29539;DHT22;16482;51.046;4.498;2022-11-12T04:37:40;21.50;40.20
29539;DHT22;16482;51.046;4.498;2022-11-12T04:40:25;21.40;40.10
29539;DHT22;16482;51.046;4.498;2022-11-12T04:43:14;21.40;40.10
29539;DHT22;16482;51.046;4.498;2022-11-12T04:45:59;21.40;40.10
29539;DHT22;16482;51.046;4.498;2022-11-12T04:48:28;21.40;40.10
29539;DHT22;16482;51.046;4.498;2022-11-12T04:50:59;21.40;40.20
29539;DHT22;16482;51.046;4.498;2022-11-12T04:53:26;21.40;40.10
29539;DHT22;16482;51.046;4.498;2022-11-12T04:55:57;21.40;40.10
29539;DHT22;16482;51.046;4.498;2022-11-12T04:58:26;21.40;40.10
29539;DHT22;16482;51.046;4.498;2022-11-12T05:00:54;21.40;40.10
29539;DHT22;16482;51.046;4.498;2022-11-12T05:03:20;21.40;40.10
29539;DHT22;16482;51.046;4.498;2022-11-12T05:05:46;21.40;40.10
29539;DHT22;16482;51.046;4.498;2022-11-12T05:08:12;21.40;40.10
29539;DHT22;16482;51.046;4.498;2022-11-12T05:10:38;21.40;40.10
29539;DHT22;16482;51.046;4.498;2022-11-12T05:13:03;21.40;40.10
29539;DHT22;16482;51.046;4.498;2022-11-12T05:15:29;21.40;40.10
29539;DHT22;16482;51.046;4.498;2022-11-12T05:17:55;21.40;40.10
29539;DHT22;16482;51.046;4.498;2022-11-12T05:20:21;21.40;40.00
29539;DHT22;16482;51.046;4.498;2022-11-12T05:22:47;21.40;40.00
29539;DHT22;16482;51.046;4.498;2022-11-12T05:25:13;21.40;40.00
29539;DHT22;16482;51.046;4.498;2022-11-12T05:27:38;21.40;40.10
29539;DHT22;16482;51.046;4.498;2022-11-12T05:30:04;21.40;40.00
29539;DHT22;16482;51.046;4.498;2022-11-12T05:32:30;21.40;40.00
29539;DHT22;16482;51.046;4.498;2022-11-12T05:34:56;21.40;40.00
29539;DHT22;16482;51.046;4.498;2022-11-12T05:37:22;21.40;40.00
29539;DHT22;16482;51.046;4.498;2022-11-12T05:39:48;21.40;40.00
29539;DHT22;16482;51.046;4.498;2022-11-12T05:42:13;21.40;40.00
29539;DHT22;16482;51.046;4.498;2022-11-12T05:44:40;21.40;39.90
29539;DHT22;16482;51.046;4.498;2022-11-12T05:47:05;21.40;39.90
29539;DHT22;16482;51.046;4.498;2022-11-12T05:49:31;21.40;39.90
29539;DHT22;16482;51.046;4.498;2022-11-12T05:51:57;21.40;40.00
29539;DHT22;16482;51.046;4.498;2022-11-12T05:54:23;21.40;39.90
29539;DHT22;16482;51.046;4.498;2022-11-12T05:56:50;21.40;39.90
29539;DHT22;16482;51.046;4.498;2022-11-12T05:59:16;21.40;39.90
29539;DHT22;16482;51.046;4.498;2022-11-12T06:01:42;21.40;39.90
29539;DHT22;16482;51.046;4.498;2022-11-12T06:04:12;21.40;39.90
29539;DHT22;16482;51.046;4.498;2022-11-12T06:06:38;21.40;39.90
29539;DHT22;16482;51.046;4.498;2022-11-12T06:09:04;21.40;39.90
29539;DHT22;16482;51.046;4.498;2022-11-12T06:11:31;21.40;39.80
29539;DHT22;16482;51.046;4.498;2022-11-12T06:13:56;21.40;39.90
29539;DHT22;16482;51.046;4.498;2022-11-12T06:16:22;21.40;39.80
29539;DHT22;16482;51.046;4.498;2022-11-12T06:18:48;21.40;39.90
29539;DHT22;16482;51.046;4.498;2022-11-12T06:21:14;21.40;39.90
29539;DHT22;16482;51.046;4.498;2022-11-12T06:23:54;21.40;39.80
29539;DHT22;16482;51.046;4.498;2022-11-12T06:26:21;21.40;39.90
29539;DHT22;16482;51.046;4.498;2022-11-12T06:28:48;21.40;39.90
29539;DHT22;16482;51.046;4.498;2022-11-12T06:31:15;21.40;39.80
29539;DHT22;16482;51.046;4.498;2022-11-12T06:33:42;21.40;39.80
29539;DHT22;16482;51.046;4.498;2022-11-12T06:36:09;21.40;39.80
29539;DHT22;16482;51.046;4.498;2022-11-12T06:38:37;21.30;39.70
29539;DHT22;16482;51.046;4.498;2022-11-12T06:41:03;21.40;39.80
29539;DHT22;16482;51.046;4.498;2022-11-12T06:43:30;21.30;39.80
29539;DHT22;16482;51.046;4.498;2022-11-12T06:46:04;21.40;39.80
29539;DHT22;16482;51.046;4.498;2022-11-12T06:48:33;21.30;39.70
29539;DHT22;16482;51.046;4.498;2022-11-12T06:51:08;21.40;39.80
29539;DHT22;16482;51.046;4.498;2022-11-12T06:53:34;21.30;39.70
29539;DHT22;16482;51.046;4.498;2022-11-12T06:56:02;21.40;39.80
29539;DHT22;16482;51.046;4.498;2022-11-12T06:58:28;21.30;39.80
29539;DHT22;16482;51.046;4.498;2022-11-12T07:01:07;21.30;40.00
29539;DHT22;16482;51.046;4.498;2022-11-12T07:03:33;21.30;39.90
29539;DHT22;16482;51.046;4.498;2022-11-12T07:06:03;21.20;39.80
29539;DHT22;16482;51.046;4.498;2022-11-12T07:08:38;21.30;39.80
29539;DHT22;16482;51.046;4.498;2022-11-12T07:11:06;21.30;39.90
29539;DHT22;16482;51.046;4.498;2022-11-12T07:13:33;21.30;39.90
29539;DHT22;16482;51.046;4.498;2022-11-12T07:15:59;21.30;39.90
29539;DHT22;16482;51.046;4.498;2022-11-12T07:18:29;21.30;39.80
29539;DHT22;16482;51.046;4.498;2022-11-12T07:21:03;21.30;39.80
29539;DHT22;16482;51.046;4.498;2022-11-12T07:23:33;21.30;39.70
29539;DHT22;16482;51.046;4.498;2022-11-12T07:26:20;21.30;39.70
29539;DHT22;16482;51.046;4.498;2022-11-12T07:28:47;21.30;39.70
29539;DHT22;16482;51.046;4.498;2022-11-12T07:31:15;21.30;39.70
29539;DHT22;16482;51.046;4.498;2022-11-12T07:33:42;21.30;39.60
29539;DHT22;16482;51.046;4.498;2022-11-12T07:36:11;21.30;39.70
29539;DHT22;16482;51.046;4.498;2022-11-12T07:38:39;21.30;39.80
29539;DHT22;16482;51.046;4.498;2022-11-12T07:41:05;21.30;39.70
29539;DHT22;16482;51.046;4.498;2022-11-12T07:43:33;21.30;39.70
29539;DHT22;16482;51.046;4.498;2022-11-12T07:46:04;21.30;39.70
29539;DHT22;16482;51.046;4.498;2022-11-12T07:48:31;21.30;39.60
29539;DHT22;16482;51.046;4.498;2022-11-12T07:51:05;21.30;39.70
29539;DHT22;16482;51.046;4.498;2022-11-12T07:53:32;21.30;39.60
29539;DHT22;16482;51.046;4.498;2022-11-12T07:55:59;21.30;39.60
29539;DHT22;16482;51.046;4.498;2022-11-12T07:58:27;21.30;39.60
29539;DHT22;16482;51.046;4.498;2022-11-12T08:00:54;21.30;39.60
29539;DHT22;16482;51.046;4.498;2022-11-12T08:03:20;21.30;39.60
29539;DHT22;16482;51.046;4.498;2022-11-12T08:05:46;21.30;39.60
29539;DHT22;16482;51.046;4.498;2022-11-12T08:08:12;21.30;39.60
29539;DHT22;16482;51.046;4.498;2022-11-12T08:10:38;21.30;39.60
29539;DHT22;16482;51.046;4.498;2022-11-12T08:13:05;21.30;39.60
29539;DHT22;16482;51.046;4.498;2022-11-12T08:15:31;21.30;39.60
29539;DHT22;16482;51.046;4.498;2022-11-12T08:17:57;21.30;39.60
29539;DHT22;16482;51.046;4.498;2022-11-12T08:20:23;21.30;39.60
29539;DHT22;16482;51.046;4.498;2022-11-12T08:22:49;21.30;39.70
29539;DHT22;16482;51.046;4.498;2022-11-12T08:25:15;21.30;39.70
29539;DHT22;16482;51.046;4.498;2022-11-12T08:27:41;21.30;39.80
29539;DHT22;16482;51.046;4.498;2022-11-12T08:30:07;21.30;39.70
29539;DHT22;16482;51.046;4.498;2022-11-12T08:32:33;21.30;39.80
29539;DHT22;16482;51.046;4.498;2022-11-12T08:34:59;21.30;39.80
29539;DHT22;16482;51.046;4.498;2022-11-12T08:37:25;21.30;39.80
29539;DHT22;16482;51.046;4.498;2022-11-12T08:39:52;21.30;39.90
29539;DHT22;16482;51.046;4.498;2022-11-12T08:42:17;21.30;39.90
29539;DHT22;16482;51.046;4.498;2022-11-12T08:44:43;21.30;40.00
29539;DHT22;16482;51.046;4.498;2022-11-12T08:47:09;21.30;39.90
29539;DHT22;16482;51.046;4.498;2022-11-12T08:49:37;21.40;40.00
29539;DHT22;16482;51.046;4.498;2022-11-12T08:52:03;21.30;40.00
29539;DHT22;16482;51.046;4.498;2022-11-12T08:54:28;21.30;39.90
29539;DHT22;16482;51.046;4.498;2022-11-12T08:56:54;21.30;40.00
29539;DHT22;16482;51.046;4.498;2022-11-12T08:59:23;21.30;40.00
29539;DHT22;16482;51.046;4.498;2022-11-12T09:01:48;21.40;40.00
29539;DHT22;16482;51.046;4.498;2022-11-12T09:04:17;21.40;40.00
29539;DHT22;16482;51.046;4.498;2022-11-12T09:06:43;21.40;40.00
29539;DHT22;16482;51.046;4.498;2022-11-12T09:09:09;21.40;40.00
29539;DHT22;16482;51.046;4.498;2022-11-12T09:11:35;21.40;40.00
29539;DHT22;16482;51.046;4.498;2022-11-12T09:14:00;21.40;40.00
29539;DHT22;16482;51.046;4.498;2022-11-12T09:16:26;21.40;40.00
29539;DHT22;16482;51.046;4.498;2022-11-12T09:18:52;21.40;40.10
29539;DHT22;16482;51.046;4.498;2022-11-12T09:21:18;21.40;40.10
29539;DHT22;16482;51.046;4.498;2022-11-12T09:23:49;21.40;40.10
29539;DHT22;16482;51.046;4.498;2022-11-12T09:26:14;21.40;40.20
29539;DHT22;16482;51.046;4.498;2022-11-12T09:28:40;21.40;40.30
29539;DHT22;16482;51.046;4.498;2022-11-12T09:31:07;21.40;41.00
29539;DHT22;16482;51.046;4.498;2022-11-12T09:33:33;21.40;40.40
29539;DHT22;16482;51.046;4.498;2022-11-12T09:36:01;21.40;40.40
29539;DHT22;16482;51.046;4.498;2022-11-12T09:38:27;21.40;40.40
29539;DHT22;16482;51.046;4.498;2022-11-12T09:43:39;21.40;40.60
29539;DHT22;16482;51.046;4.498;2022-11-12T09:48:52;21.40;40.70
29539;DHT22;16482;51.046;4.498;2022-11-12T09:51:25;21.40;40.90
29539;DHT22;16482;51.046;4.498;2022-11-12T09:53:58;21.40;41.00
29539;DHT22;16482;51.046;4.498;2022-11-12T09:56:25;21.40;41.10
29539;DHT22;16482;51.046;4.498;2022-11-12T09:58:52;21.40;41.10
29539;DHT22;16482;51.046;4.498;2022-11-12T10:09:19;21.40;41.30
29539;DHT22;16482;51.046;4.498;2022-11-12T10:14:49;21.40;41.40
29539;DHT22;16482;51.046;4.498;2022-11-12T10:17:43;21.40;41.50
29539;DHT22;16482;51.046;4.498;2022-11-12T10:20:24;21.40;41.50
29539;DHT22;16482;51.046;4.498;2022-11-12T10:23:05;21.40;41.60
29539;DHT22;16482;51.046;4.498;2022-11-12T10:25:34;21.40;41.70
29539;DHT22;16482;51.046;4.498;2022-11-12T10:28:12;21.40;41.80
29539;DHT22;16482;51.046;4.498;2022-11-12T10:30:39;21.40;41.80
29539;DHT22;16482;51.046;4.498;2022-11-12T10:33:12;21.40;41.80
29539;DHT22;16482;51.046;4.498;2022-11-12T10:35:38;21.40;41.80
29539;DHT22;16482;51.046;4.498;2022-11-12T10:38:06;21.40;41.90
29539;DHT22;16482;51.046;4.498;2022-11-12T10:40:40;21.40;42.00
29539;DHT22;16482;51.046;4.498;2022-11-12T10:45:44;21.40;42.10
29539;DHT22;16482;51.046;4.498;2022-11-12T10:48:23;21.40;42.10
29539;DHT22;16482;51.046;4.498;2022-11-12T10:50:50;21.40;42.20
29539;DHT22;16482;51.046;4.498;2022-11-12T10:53:31;21.40;42.20
29539;DHT22;16482;51.046;4.498;2022-11-12T10:56:07;21.40;42.20
29539;DHT22;16482;51.046;4.498;2022-11-12T10:58:54;21.40;42.30
29539;DHT22;16482;51.046;4.498;2022-11-12T11:01:31;21.40;42.30
29539;DHT22;16482;51.046;4.498;2022-11-12T11:03:58;21.40;42.40
29539;DHT22;16482;51.046;4.498;2022-11-12T11:06:25;21.40;42.50
29539;DHT22;16482;51.046;4.498;2022-11-12T11:08:53;21.40;42.50
29539;DHT22;16482;51.046;4.498;2022-11-12T11:11:32;21.40;42.50
29539;DHT22;16482;51.046;4.498;2022-11-12T11:16:57;21.40;42.60
29539;DHT22;16482;51.046;4.498;2022-11-12T11:19:37;21.40;42.70
29539;DHT22;16482;51.046;4.498;2022-11-12T11:22:22;21.40;42.70
29539;DHT22;16482;51.046;4.498;2022-11-12T11:25:00;21.40;42.70
29539;DHT22;16482;51.046;4.498;2022-11-12T11:30:13;21.40;42.80
29539;DHT22;16482;51.046;4.498;2022-11-12T11:39:00;21.30;42.90
29539;DHT22;16482;51.046;4.498;2022-11-12T11:44:40;21.30;43.00
29539;DHT22;16482;51.046;4.498;2022-11-12T11:50:16;21.40;43.10
29539;DHT22;16482;51.046;4.498;2022-11-12T11:55:36;21.30;43.10
29539;DHT22;16482;51.046;4.498;2022-11-12T12:01:46;21.40;43.20
29539;DHT22;16482;51.046;4.498;2022-11-12T12:10:21;21.30;43.30
29539;DHT22;16482;51.046;4.498;2022-11-12T12:13:13;21.30;43.40
29539;DHT22;16482;51.046;4.498;2022-11-12T12:21:22;21.30;43.50
29539;DHT22;16482;51.046;4.498;2022-11-12T12:24:02;21.30;43.50
29539;DHT22;16482;51.046;4.498;2022-11-12T12:26:39;21.30;43.50
29539;DHT22;16482;51.046;4.498;2022-11-12T12:29:18;21.30;43.60
29539;DHT22;16482;51.046;4.498;2022-11-12T12:31:54;21.30;43.60
29539;DHT22;16482;51.046;4.498;2022-11-12T12:34:34;21.30;43.60
29539;DHT22;16482;51.046;4.498;2022-11-12T12:37:27;21.30;43.60
29539;DHT22;16482;51.046;4.498;2022-11-12T12:43:07;21.40;43.70
29539;DHT22;16482;51.046;4.498;2022-11-12T12:45:43;21.30;43.70
29539;DHT22;16482;51.046;4.498;2022-11-12T12:48:35;21.30;43.80
29539;DHT22;16482;51.046;4.498;2022-11-12T12:51:03;21.40;43.90
29539;DHT22;16482;51.046;4.498;2022-11-12T12:55:58;21.30;43.90
29539;DHT22;16482;51.046;4.498;2022-11-12T12:58:44;21.40;43.90
29539;DHT22;16482;51.046;4.498;2022-11-12T13:04:04;21.40;44.00
29539;DHT22;16482;51.046;4.498;2022-11-12T13:32:56;21.30;44.30
29539;DHT22;16482;51.046;4.498;2022-11-12T13:35:27;21.40;44.40
29539;DHT22;16482;51.046;4.498;2022-11-12T13:38:10;21.40;44.40
29539;DHT22;16482;51.046;4.498;2022-11-12T13:45:53;21.40;44.70
29539;DHT22;16482;51.046;4.498;2022-11-12T13:50:57;21.30;44.60
29539;DHT22;16482;51.046;4.498;2022-11-12T13:53:30;21.40;44.60
29539;DHT22;16482;51.046;4.498;2022-11-12T13:56:07;21.40;44.60
29539;DHT22;16482;51.046;4.498;2022-11-12T13:58:35;21.40;44.70
29539;DHT22;16482;51.046;4.498;2022-11-12T14:01:04;21.40;44.70
29539;DHT22;16482;51.046;4.498;2022-11-12T14:03:43;21.40;44.70
29539;DHT22;16482;51.046;4.498;2022-11-12T14:06:21;21.40;44.80
29539;DHT22;16482;51.046;4.498;2022-11-12T14:09:31;21.40;44.80
29539;DHT22;16482;51.046;4.498;2022-11-12T14:12:24;21.40;44.90
29539;DHT22;16482;51.046;4.498;2022-11-12T14:18:01;21.40;45.10
29539;DHT22;16482;51.046;4.498;2022-11-12T14:20:35;21.40;45.10
29539;DHT22;16482;51.046;4.498;2022-11-12T14:23:17;21.40;45.10
29539;DHT22;16482;51.046;4.498;2022-11-12T14:25:51;21.40;45.10
29539;DHT22;16482;51.046;4.498;2022-11-12T14:28:26;21.40;45.20
29539;DHT22;16482;51.046;4.498;2022-11-12T14:30:53;21.40;45.20
29539;DHT22;16482;51.046;4.498;2022-11-12T14:33:21;21.40;45.20
29539;DHT22;16482;51.046;4.498;2022-11-12T14:35:49;21.40;45.20
29539;DHT22;16482;51.046;4.498;2022-11-12T14:38:22;21.40;45.30
29539;DHT22;16482;51.046;4.498;2022-11-12T14:41:00;21.40;45.30
29539;DHT22;16482;51.046;4.498;2022-11-12T14:46:03;21.40;45.40
29539;DHT22;16482;51.046;4.498;2022-11-12T14:48:35;21.40;45.40
29539;DHT22;16482;51.046;4.498;2022-11-12T14:51:07;21.40;45.40
29539;DHT22;16482;51.046;4.498;2022-11-12T14:53:41;21.40;45.40
29539;DHT22;16482;51.046;4.498;2022-11-12T14:56:21;21.40;45.40
29539;DHT22;16482;51.046;4.498;2022-11-12T14:58:49;21.40;45.50
29539;DHT22;16482;51.046;4.498;2022-11-12T15:03:50;21.40;45.50
29539;DHT22;16482;51.046;4.498;2022-11-12T15:06:27;21.40;45.60
29539;DHT22;16482;51.046;4.498;2022-11-12T15:08:57;21.40;45.60
29539;DHT22;16482;51.046;4.498;2022-11-12T15:11:42;21.40;45.60
29539;DHT22;16482;51.046;4.498;2022-11-12T15:14:18;21.40;45.60
29539;DHT22;16482;51.046;4.498;2022-11-12T15:16:46;21.40;45.70
29539;DHT22;16482;51.046;4.498;2022-11-12T15:19:23;21.40;45.70
29539;DHT22;16482;51.046;4.498;2022-11-12T15:21:55;21.40;45.70
29539;DHT22;16482;51.046;4.498;2022-11-12T15:24:31;21.40;45.80
29539;DHT22;16482;51.046;4.498;2022-11-12T15:26:59;21.40;45.80
29539;DHT22;16482;51.046;4.498;2022-11-12T15:29:31;21.40;45.80
29539;DHT22;16482;51.046;4.498;2022-11-12T15:32:01;21.40;45.90
29539;DHT22;16482;51.046;4.498;2022-11-12T15:37:12;21.30;45.90
29539;DHT22;16482;51.046;4.498;2022-11-12T15:39:46;21.40;45.90
29539;DHT22;16482;51.046;4.498;2022-11-12T15:42:35;21.40;45.90
29539;DHT22;16482;51.046;4.498;2022-11-12T15:45:08;21.40;46.00
29539;DHT22;16482;51.046;4.498;2022-11-12T15:47:35;21.30;46.00
29539;DHT22;16482;51.046;4.498;2022-11-12T15:50:18;21.40;46.10
29539;DHT22;16482;51.046;4.498;2022-11-12T15:52:44;21.40;46.10
29539;DHT22;16482;51.046;4.498;2022-11-12T15:55:13;21.40;46.10
29539;DHT22;16482;51.046;4.498;2022-11-12T15:57:51;21.30;46.10
29539;DHT22;16482;51.046;4.498;2022-11-12T16:00:19;21.40;46.20
29539;DHT22;16482;51.046;4.498;2022-11-12T16:02:48;21.30;46.20
29539;DHT22;16482;51.046;4.498;2022-11-12T16:05:17;21.30;46.20
29539;DHT22;16482;51.046;4.498;2022-11-12T16:07:43;21.30;46.20
29539;DHT22;16482;51.046;4.498;2022-11-12T16:10:13;21.40;46.30
29539;DHT22;16482;51.046;4.498;2022-11-12T16:12:42;21.30;46.20
29539;DHT22;16482;51.046;4.498;2022-11-12T16:15:17;21.30;46.30
29539;DHT22;16482;51.046;4.498;2022-11-12T16:17:44;21.30;46.30
29539;DHT22;16482;51.046;4.498;2022-11-12T16:20:14;21.30;46.30
29539;DHT22;16482;51.046;4.498;2022-11-12T16:22:41;21.30;46.30
29539;DHT22;16482;51.046;4.498;2022-11-12T16:25:09;21.30;46.40
29539;DHT22;16482;51.046;4.498;2022-11-12T16:27:38;21.30;46.40
29539;DHT22;16482;51.046;4.498;2022-11-12T16:30:16;21.30;46.40
29539;DHT22;16482;51.046;4.498;2022-11-12T16:32:42;21.40;46.40
29539;DHT22;16482;51.046;4.498;2022-11-12T16:35:08;21.30;46.40
29539;DHT22;16482;51.046;4.498;2022-11-12T16:37:34;21.30;46.40
29539;DHT22;16482;51.046;4.498;2022-11-12T16:40:04;21.30;46.40
29539;DHT22;16482;51.046;4.498;2022-11-12T16:42:33;21.30;46.40
29539;DHT22;16482;51.046;4.498;2022-11-12T16:44:59;21.30;46.50
29539;DHT22;16482;51.046;4.498;2022-11-12T16:47:25;21.30;46.50
29539;DHT22;16482;51.046;4.498;2022-11-12T16:49:50;21.30;46.50
29539;DHT22;16482;51.046;4.498;2022-11-12T16:52:16;21.30;46.50
29539;DHT22;16482;51.046;4.498;2022-11-12T16:54:42;21.30;46.50
29539;DHT22;16482;51.046;4.498;2022-11-12T16:57:09;21.30;46.50
29539;DHT22;16482;51.046;4.498;2022-11-12T16:59:35;21.30;46.50
29539;DHT22;16482;51.046;4.498;2022-11-12T17:02:01;21.30;46.50
29539;DHT22;16482;51.046;4.498;2022-11-12T17:04:27;21.30;46.50
29539;DHT22;16482;51.046;4.498;2022-11-12T17:06:53;21.30;46.50
29539;DHT22;16482;51.046;4.498;2022-11-12T17:09:19;21.30;46.50
29539;DHT22;16482;51.046;4.498;2022-11-12T17:11:44;21.30;46.60
29539;DHT22;16482;51.046;4.498;2022-11-12T17:14:10;21.30;46.60
29539;DHT22;16482;51.046;4.498;2022-11-12T17:16:36;21.30;46.50
29539;DHT22;16482;51.046;4.498;2022-11-12T17:19:02;21.30;46.50
29539;DHT22;16482;51.046;4.498;2022-11-12T17:21:28;21.30;46.50
29539;DHT22;16482;51.046;4.498;2022-11-12T17:23:54;21.30;46.60
29539;DHT22;16482;51.046;4.498;2022-11-12T17:26:21;21.30;46.50
29539;DHT22;16482;51.046;4.498;2022-11-12T17:28:47;21.30;46.60
29539;DHT22;16482;51.046;4.498;2022-11-12T17:31:21;21.30;46.50
29539;DHT22;16482;51.046;4.498;2022-11-12T17:33:49;21.30;46.50
29539;DHT22;16482;51.046;4.498;2022-11-12T17:36:20;21.30;46.60
29539;DHT22;16482;51.046;4.498;2022-11-12T17:38:46;21.30;46.50